Yang Li Hu — BOGE — position and weather

sailwx.info

Track history (hours):
 
Tides and Currents Weather Stations Pressure Air Temp Water Temp Dewpoint Dewpoint Depression Visibility Wind Speed Wind Dir Waves Ship Positions

Yang Li Hu

Last reported at 2014-Sep-06 13:03 UTC. Time now 2014-Sep-19 15:56 UTC.
Position N 36°09' E 015°08'.
Warning: this ship's position is 13 days out of date.

Length 244 m; draft 13.8 m.

Type: Tanker. MMSI: 413975000.

Date/timePositionNaut miles runAvg speedWind from/ knotsBaromVisibWave heightAir tempDewpointWater temp
2014-Sep-06 13:03N 36°09' E 015°08'612.5
2014-Sep-06 12:33N 36°11' E 015°01'1212.5
2014-Sep-06 11:33N 36°15' E 014°46'1312.5
2014-Sep-06 10:33N 36°18' E 014°31'1312.8
2014-Sep-06 09:33N 36°22' E 014°16'1312.6
2014-Sep-06 08:30N 36°26' E 013°60'1212.8
2014-Sep-06 07:33N 36°30' E 013°46'1412.7
2014-Sep-06 06:28N 36°35' E 013°30'13212.1
2014-Sep-05 19:32N 37°26' E 010°57'2512.7
2014-Sep-05 17:33N 37°32' E 010°26'1512.8
2014-Sep-05 16:24N 37°34' E 010°08'1512.6
2014-Sep-05 15:10N 37°35' E 009°48'813.0
2014-Sep-05 14:31N 37°35' E 009°38'1312.9
2014-Sep-05 13:30N 37°36' E 009°21'1713.0
2014-Sep-05 12:10N 37°37' E 008°59'25312.1
2014-Sep-04 15:17N 37°05' E 003°44'9411.9
2014-Sep-04 07:23N 36°51' E 001°48'6413.0
2014-Sep-04 02:30N 36°42' E 000°29'1513.6
2014-Sep-04 01:25N 36°39' E 000°11'3912.7
2014-Sep-03 22:20N 36°34' W 000°38'912.0
2014-Sep-03 21:33N 36°32' W 000°49'22312.3
2014-Sep-03 03:28N 35°59' W 005°23'10412.4
2014-Sep-02 19:07N 36°09' W 007°31'712.2
2014-Sep-02 18:33N 36°11' W 007°39'13510.8
2014-Sep-02 06:04N 37°34' W 009°52'  
2014-Aug-29 22:29N 50°30' W 000°04'9 9.2
2014-Aug-29 21:29N 50°33' E 000°10'1010.1
2014-Aug-29 20:33N 50°35' E 000°24'1111.4
2014-Aug-29 19:33N 50°39' E 000°41'1212.1
2014-Aug-29 18:33N 50°46' E 000°57'2211.1
2014-Aug-29 16:33N 50°60' E 001°25'9 9.0
2014-Aug-29 15:33N 51°06' E 001°35'8 8.3
2014-Aug-29 14:33N 51°12' E 001°44'9 8.9
2014-Aug-29 13:34N 51°20' E 001°51'1110.5
2014-Aug-29 12:33N 51°29' E 001°60'1212.4
2014-Aug-29 11:33N 51°38' E 002°13'39711.9
2014-Aug-28 02:10N 57°17' E 008°07'2011.5
2014-Aug-28 00:28N 57°29' E 008°36'1511.4
2014-Aug-27 23:11N 57°38' E 008°58'911.4
2014-Aug-27 22:26N 57°43' E 009°11'1011.3
2014-Aug-27 21:31N 57°48' E 009°28'1111.5
2014-Aug-27 20:33N 57°49' E 009°49'1212.0
2014-Aug-27 19:33N 57°49' E 010°11'1312.8
2014-Aug-27 18:33N 57°48' E 010°35'10 9.7
2014-Aug-27 17:33N 57°45' E 010°53'1110.7
2014-Aug-27 16:33N 57°38' E 011°07'1211.9
2014-Aug-27 15:33N 57°29' E 011°23'1111.4
2014-Aug-27 14:33N 57°19' E 011°32'1211.8
2014-Aug-27 13:32N 57°08' E 011°39'  
Track history (hours):
 
Tides and Currents Weather Stations Pressure Air Temp Water Temp Dewpoint Dewpoint Depression Visibility Wind Speed Wind Dir Waves Ship Positions

Yang Li Hu

Last reported at 2014-Sep-06 13:03 UTC. Time now 2014-Sep-19 15:56 UTC.
Position N 36°09' E 015°08'.
Warning: this ship's position is 13 days out of date.

Length 244 m; draft 13.8 m.

Type: Tanker. MMSI: 413975000.

Date/timePositionNaut miles runAvg speedWind from/ knotsBaromVisibWave heightAir tempDewpointWater temp
2014-Sep-06 13:03N 36°09' E 015°08'612.5
2014-Sep-06 12:33N 36°11' E 015°01'1212.5
2014-Sep-06 11:33N 36°15' E 014°46'1312.5
2014-Sep-06 10:33N 36°18' E 014°31'1312.8
2014-Sep-06 09:33N 36°22' E 014°16'1312.6
2014-Sep-06 08:30N 36°26' E 013°60'1212.8
2014-Sep-06 07:33N 36°30' E 013°46'1412.7
2014-Sep-06 06:28N 36°35' E 013°30'13212.1
2014-Sep-05 19:32N 37°26' E 010°57'2512.7
2014-Sep-05 17:33N 37°32' E 010°26'1512.8
2014-Sep-05 16:24N 37°34' E 010°08'1512.6
2014-Sep-05 15:10N 37°35' E 009°48'813.0
2014-Sep-05 14:31N 37°35' E 009°38'1312.9
2014-Sep-05 13:30N 37°36' E 009°21'1713.0
2014-Sep-05 12:10N 37°37' E 008°59'25312.1
2014-Sep-04 15:17N 37°05' E 003°44'9411.9
2014-Sep-04 07:23N 36°51' E 001°48'6413.0
2014-Sep-04 02:30N 36°42' E 000°29'1513.6
2014-Sep-04 01:25N 36°39' E 000°11'3912.7
2014-Sep-03 22:20N 36°34' W 000°38'912.0
2014-Sep-03 21:33N 36°32' W 000°49'22312.3
2014-Sep-03 03:28N 35°59' W 005°23'10412.4
2014-Sep-02 19:07N 36°09' W 007°31'712.2
2014-Sep-02 18:33N 36°11' W 007°39'13510.8
2014-Sep-02 06:04N 37°34' W 009°52'  
2014-Aug-29 22:29N 50°30' W 000°04'9 9.2
2014-Aug-29 21:29N 50°33' E 000°10'1010.1
2014-Aug-29 20:33N 50°35' E 000°24'1111.4
2014-Aug-29 19:33N 50°39' E 000°41'1212.1
2014-Aug-29 18:33N 50°46' E 000°57'2211.1
2014-Aug-29 16:33N 50°60' E 001°25'9 9.0
2014-Aug-29 15:33N 51°06' E 001°35'8 8.3
2014-Aug-29 14:33N 51°12' E 001°44'9 8.9
2014-Aug-29 13:34N 51°20' E 001°51'1110.5
2014-Aug-29 12:33N 51°29' E 001°60'1212.4
2014-Aug-29 11:33N 51°38' E 002°13'39711.9
2014-Aug-28 02:10N 57°17' E 008°07'2011.5
2014-Aug-28 00:28N 57°29' E 008°36'1511.4
2014-Aug-27 23:11N 57°38' E 008°58'911.4
2014-Aug-27 22:26N 57°43' E 009°11'1011.3
2014-Aug-27 21:31N 57°48' E 009°28'1111.5
2014-Aug-27 20:33N 57°49' E 009°49'1212.0
2014-Aug-27 19:33N 57°49' E 010°11'1312.8
2014-Aug-27 18:33N 57°48' E 010°35'10 9.7
2014-Aug-27 17:33N 57°45' E 010°53'1110.7
2014-Aug-27 16:33N 57°38' E 011°07'1211.9
2014-Aug-27 15:33N 57°29' E 011°23'1111.4
2014-Aug-27 14:33N 57°19' E 011°32'1211.8
2014-Aug-27 13:32N 57°08' E 011°39'  

Dump ship's entire track history